sensor_id;sensor_type;location;lat;lon;timestamp;P1;durP1;ratioP1;P2;durP2;ratioP2
77276;SDS011;66330;52.166;9.978;2023-04-24T00:01:21;1.13;;;1.10;;
77276;SDS011;66330;52.166;9.978;2023-04-24T00:03:47;1.83;;;1.50;;
77276;SDS011;66330;52.166;9.978;2023-04-24T00:06:12;1.43;;;1.33;;
77276;SDS011;66330;52.166;9.978;2023-04-24T00:08:38;1.50;;;1.40;;
77276;SDS011;66330;52.166;9.978;2023-04-24T00:11:04;1.43;;;1.33;;
77276;SDS011;66330;52.166;9.978;2023-04-24T00:13:30;1.63;;;1.20;;
77276;SDS011;66330;52.166;9.978;2023-04-24T00:15:55;1.70;;;1.60;;
77276;SDS011;66330;52.166;9.978;2023-04-24T00:18:21;2.03;;;1.73;;
77276;SDS011;66330;52.166;9.978;2023-04-24T00:20:47;1.97;;;1.77;;
77276;SDS011;66330;52.166;9.978;2023-04-24T00:23:12;2.03;;;1.67;;
77276;SDS011;66330;52.166;9.978;2023-04-24T00:25:38;1.80;;;1.70;;
77276;SDS011;66330;52.166;9.978;2023-04-24T00:28:04;1.60;;;1.50;;
77276;SDS011;66330;52.166;9.978;2023-04-24T00:30:30;1.83;;;1.43;;
77276;SDS011;66330;52.166;9.978;2023-04-24T00:32:56;2.20;;;1.80;;
77276;SDS011;66330;52.166;9.978;2023-04-24T00:35:22;1.60;;;1.50;;
77276;SDS011;66330;52.166;9.978;2023-04-24T00:37:48;2.27;;;1.53;;
77276;SDS011;66330;52.166;9.978;2023-04-24T00:40:13;2.20;;;2.00;;
77276;SDS011;66330;52.166;9.978;2023-04-24T00:42:39;1.67;;;1.57;;
77276;SDS011;66330;52.166;9.978;2023-04-24T00:45:06;1.50;;;1.40;;
77276;SDS011;66330;52.166;9.978;2023-04-24T00:47:35;1.60;;;1.50;;
77276;SDS011;66330;52.166;9.978;2023-04-24T00:50:02;1.57;;;1.47;;
77276;SDS011;66330;52.166;9.978;2023-04-24T00:52:28;1.60;;;1.50;;
77276;SDS011;66330;52.166;9.978;2023-04-24T00:54:56;3.03;;;2.30;;
77276;SDS011;66330;52.166;9.978;2023-04-24T00:57:21;1.80;;;1.70;;
77276;SDS011;66330;52.166;9.978;2023-04-24T00:59:48;1.70;;;1.50;;
77276;SDS011;66330;52.166;9.978;2023-04-24T01:02:14;4.57;;;2.20;;
77276;SDS011;66330;52.166;9.978;2023-04-24T01:04:40;1.90;;;1.80;;
77276;SDS011;66330;52.166;9.978;2023-04-24T01:07:06;2.77;;;2.03;;
77276;SDS011;66330;52.166;9.978;2023-04-24T01:09:35;1.60;;;1.50;;
77276;SDS011;66330;52.166;9.978;2023-04-24T01:12:09;2.33;;;1.60;;
77276;SDS011;66330;52.166;9.978;2023-04-24T01:14:35;1.50;;;1.40;;
77276;SDS011;66330;52.166;9.978;2023-04-24T01:17:01;1.60;;;1.50;;
77276;SDS011;66330;52.166;9.978;2023-04-24T01:19:27;1.70;;;1.60;;
77276;SDS011;66330;52.166;9.978;2023-04-24T01:21:53;2.30;;;2.10;;
77276;SDS011;66330;52.166;9.978;2023-04-24T01:24:22;1.63;;;1.50;;
77276;SDS011;66330;52.166;9.978;2023-04-24T01:26:48;2.00;;;1.80;;
77276;SDS011;66330;52.166;9.978;2023-04-24T01:29:14;1.83;;;1.73;;
77276;SDS011;66330;52.166;9.978;2023-04-24T01:31:40;1.80;;;1.70;;
77276;SDS011;66330;52.166;9.978;2023-04-24T01:34:05;2.23;;;1.90;;
77276;SDS011;66330;52.166;9.978;2023-04-24T01:36:31;2.30;;;1.70;;
77276;SDS011;66330;52.166;9.978;2023-04-24T01:39:00;2.00;;;1.90;;
77276;SDS011;66330;52.166;9.978;2023-04-24T01:41:25;1.93;;;1.73;;
77276;SDS011;66330;52.166;9.978;2023-04-24T01:43:51;2.53;;;1.70;;
77276;SDS011;66330;52.166;9.978;2023-04-24T01:46:18;2.10;;;1.80;;
77276;SDS011;66330;52.166;9.978;2023-04-24T01:48:44;1.70;;;1.47;;
77276;SDS011;66330;52.166;9.978;2023-04-24T01:51:10;1.53;;;1.43;;
77276;SDS011;66330;52.166;9.978;2023-04-24T01:53:36;1.50;;;1.40;;
77276;SDS011;66330;52.166;9.978;2023-04-24T01:56:01;1.47;;;1.37;;
77276;SDS011;66330;52.166;9.978;2023-04-24T01:58:27;1.40;;;1.30;;
77276;SDS011;66330;52.166;9.978;2023-04-24T02:00:55;1.40;;;1.30;;
77276;SDS011;66330;52.166;9.978;2023-04-24T02:03:23;1.40;;;1.30;;
77276;SDS011;66330;52.166;9.978;2023-04-24T02:05:49;1.63;;;1.53;;
77276;SDS011;66330;52.166;9.978;2023-04-24T02:08:15;1.30;;;1.20;;
77276;SDS011;66330;52.166;9.978;2023-04-24T02:10:40;2.93;;;1.30;;
77276;SDS011;66330;52.166;9.978;2023-04-24T02:13:06;1.80;;;1.53;;
77276;SDS011;66330;52.166;9.978;2023-04-24T02:15:32;1.60;;;1.50;;
77276;SDS011;66330;52.166;9.978;2023-04-24T02:17:57;1.60;;;1.50;;
77276;SDS011;66330;52.166;9.978;2023-04-24T02:20:23;1.93;;;1.37;;
77276;SDS011;66330;52.166;9.978;2023-04-24T02:22:48;2.30;;;1.63;;
77276;SDS011;66330;52.166;9.978;2023-04-24T02:25:14;2.07;;;1.60;;
77276;SDS011;66330;52.166;9.978;2023-04-24T02:27:40;3.63;;;2.27;;
77276;SDS011;66330;52.166;9.978;2023-04-24T02:30:05;1.57;;;1.47;;
77276;SDS011;66330;52.166;9.978;2023-04-24T02:32:32;1.60;;;1.50;;
77276;SDS011;66330;52.166;9.978;2023-04-24T02:34:58;1.93;;;1.50;;
77276;SDS011;66330;52.166;9.978;2023-04-24T02:37:24;2.50;;;1.60;;
77276;SDS011;66330;52.166;9.978;2023-04-24T02:39:50;4.80;;;1.90;;
77276;SDS011;66330;52.166;9.978;2023-04-24T02:42:15;2.70;;;2.43;;
77276;SDS011;66330;52.166;9.978;2023-04-24T02:44:41;1.57;;;1.43;;
77276;SDS011;66330;52.166;9.978;2023-04-24T02:47:06;1.90;;;1.70;;
77276;SDS011;66330;52.166;9.978;2023-04-24T02:49:33;1.53;;;1.40;;
77276;SDS011;66330;52.166;9.978;2023-04-24T02:51:59;1.70;;;1.60;;
77276;SDS011;66330;52.166;9.978;2023-04-24T02:54:24;1.47;;;1.37;;
77276;SDS011;66330;52.166;9.978;2023-04-24T02:56:50;1.20;;;1.10;;
77276;SDS011;66330;52.166;9.978;2023-04-24T02:59:15;1.60;;;1.50;;
77276;SDS011;66330;52.166;9.978;2023-04-24T03:01:41;1.43;;;1.33;;
77276;SDS011;66330;52.166;9.978;2023-04-24T03:04:06;1.70;;;1.13;;
77276;SDS011;66330;52.166;9.978;2023-04-24T03:06:32;1.17;;;1.07;;
77276;SDS011;66330;52.166;9.978;2023-04-24T03:09:00;4.10;;;1.40;;
77276;SDS011;66330;52.166;9.978;2023-04-24T03:11:25;1.47;;;1.10;;
77276;SDS011;66330;52.166;9.978;2023-04-24T03:13:51;1.90;;;1.40;;
77276;SDS011;66330;52.166;9.978;2023-04-24T03:16:17;1.33;;;1.20;;
77276;SDS011;66330;52.166;9.978;2023-04-24T03:18:42;1.53;;;1.43;;
77276;SDS011;66330;52.166;9.978;2023-04-24T03:21:08;1.60;;;1.50;;
77276;SDS011;66330;52.166;9.978;2023-04-24T03:23:33;1.33;;;1.23;;
77276;SDS011;66330;52.166;9.978;2023-04-24T03:25:59;1.20;;;1.10;;
77276;SDS011;66330;52.166;9.978;2023-04-24T03:28:24;2.90;;;1.47;;
77276;SDS011;66330;52.166;9.978;2023-04-24T03:30:50;1.20;;;0.97;;
77276;SDS011;66330;52.166;9.978;2023-04-24T03:33:16;1.30;;;1.20;;
77276;SDS011;66330;52.166;9.978;2023-04-24T03:35:41;1.20;;;1.10;;
77276;SDS011;66330;52.166;9.978;2023-04-24T03:38:07;1.53;;;1.40;;
77276;SDS011;66330;52.166;9.978;2023-04-24T03:40:32;1.80;;;1.50;;
77276;SDS011;66330;52.166;9.978;2023-04-24T03:42:58;1.37;;;1.20;;
77276;SDS011;66330;52.166;9.978;2023-04-24T03:45:24;1.10;;;1.00;;
77276;SDS011;66330;52.166;9.978;2023-04-24T03:47:49;1.20;;;1.10;;
77276;SDS011;66330;52.166;9.978;2023-04-24T03:50:15;1.30;;;1.20;;
77276;SDS011;66330;52.166;9.978;2023-04-24T03:52:40;1.37;;;1.00;;
77276;SDS011;66330;52.166;9.978;2023-04-24T03:55:06;1.30;;;1.20;;
77276;SDS011;66330;52.166;9.978;2023-04-24T03:57:32;2.80;;;1.77;;
77276;SDS011;66330;52.166;9.978;2023-04-24T03:59:57;1.70;;;1.60;;
77276;SDS011;66330;52.166;9.978;2023-04-24T04:02:23;1.70;;;1.60;;
77276;SDS011;66330;52.166;9.978;2023-04-24T04:04:49;5.47;;;5.17;;
77276;SDS011;66330;52.166;9.978;2023-04-24T04:07:14;14.30;;;12.80;;
77276;SDS011;66330;52.166;9.978;2023-04-24T04:09:40;2.13;;;1.93;;
77276;SDS011;66330;52.166;9.978;2023-04-24T04:12:05;2.23;;;1.60;;
77276;SDS011;66330;52.166;9.978;2023-04-24T04:14:31;3.03;;;1.77;;
77276;SDS011;66330;52.166;9.978;2023-04-24T04:16:56;1.50;;;1.40;;
77276;SDS011;66330;52.166;9.978;2023-04-24T04:19:22;3.60;;;2.30;;
77276;SDS011;66330;52.166;9.978;2023-04-24T04:21:47;1.73;;;1.27;;
77276;SDS011;66330;52.166;9.978;2023-04-24T04:24:17;2.17;;;1.30;;
77276;SDS011;66330;52.166;9.978;2023-04-24T04:26:43;1.67;;;1.30;;
77276;SDS011;66330;52.166;9.978;2023-04-24T04:29:11;3.90;;;1.40;;
77276;SDS011;66330;52.166;9.978;2023-04-24T04:31:37;1.60;;;1.50;;
77276;SDS011;66330;52.166;9.978;2023-04-24T04:34:03;1.20;;;1.10;;
77276;SDS011;66330;52.166;9.978;2023-04-24T04:36:28;1.60;;;1.30;;
77276;SDS011;66330;52.166;9.978;2023-04-24T04:38:54;3.33;;;1.33;;
77276;SDS011;66330;52.166;9.978;2023-04-24T04:41:20;1.70;;;1.57;;
77276;SDS011;66330;52.166;9.978;2023-04-24T04:43:45;1.40;;;1.30;;
77276;SDS011;66330;52.166;9.978;2023-04-24T04:46:12;1.40;;;1.27;;
77276;SDS011;66330;52.166;9.978;2023-04-24T04:48:38;1.20;;;1.10;;
77276;SDS011;66330;52.166;9.978;2023-04-24T04:51:04;2.10;;;1.10;;
77276;SDS011;66330;52.166;9.978;2023-04-24T04:53:30;1.30;;;1.13;;
77276;SDS011;66330;52.166;9.978;2023-04-24T04:55:55;1.53;;;1.30;;
77276;SDS011;66330;52.166;9.978;2023-04-24T04:58:21;2.33;;;1.50;;
77276;SDS011;66330;52.166;9.978;2023-04-24T05:00:47;2.80;;;1.90;;
77276;SDS011;66330;52.166;9.978;2023-04-24T05:03:13;1.93;;;1.30;;
77276;SDS011;66330;52.166;9.978;2023-04-24T05:05:39;2.47;;;2.10;;
77276;SDS011;66330;52.166;9.978;2023-04-24T05:08:06;2.50;;;2.03;;
77276;SDS011;66330;52.166;9.978;2023-04-24T05:10:32;1.70;;;1.60;;
77276;SDS011;66330;52.166;9.978;2023-04-24T05:12:57;1.27;;;1.17;;
77276;SDS011;66330;52.166;9.978;2023-04-24T05:15:23;1.60;;;1.50;;
77276;SDS011;66330;52.166;9.978;2023-04-24T05:17:48;1.30;;;1.20;;
77276;SDS011;66330;52.166;9.978;2023-04-24T05:20:14;2.93;;;1.73;;
77276;SDS011;66330;52.166;9.978;2023-04-24T05:22:40;1.20;;;1.10;;
77276;SDS011;66330;52.166;9.978;2023-04-24T05:25:06;1.47;;;1.37;;
77276;SDS011;66330;52.166;9.978;2023-04-24T05:27:31;2.33;;;1.57;;
77276;SDS011;66330;52.166;9.978;2023-04-24T05:29:57;0.90;;;0.80;;
77276;SDS011;66330;52.166;9.978;2023-04-24T05:32:22;3.43;;;1.17;;
77276;SDS011;66330;52.166;9.978;2023-04-24T05:34:48;2.10;;;1.30;;
77276;SDS011;66330;52.166;9.978;2023-04-24T05:37:13;1.20;;;0.80;;
77276;SDS011;66330;52.166;9.978;2023-04-24T05:39:39;2.73;;;1.20;;
77276;SDS011;66330;52.166;9.978;2023-04-24T05:42:06;1.97;;;1.00;;
77276;SDS011;66330;52.166;9.978;2023-04-24T05:44:32;0.80;;;0.80;;
77276;SDS011;66330;52.166;9.978;2023-04-24T05:46:57;1.00;;;0.87;;
77276;SDS011;66330;52.166;9.978;2023-04-24T05:49:23;0.93;;;0.80;;
77276;SDS011;66330;52.166;9.978;2023-04-24T05:51:49;1.10;;;1.00;;
77276;SDS011;66330;52.166;9.978;2023-04-24T05:54:14;0.80;;;0.67;;
77276;SDS011;66330;52.166;9.978;2023-04-24T05:56:40;0.83;;;0.70;;
77276;SDS011;66330;52.166;9.978;2023-04-24T05:59:05;1.63;;;0.70;;
77276;SDS011;66330;52.166;9.978;2023-04-24T06:01:32;1.23;;;0.80;;
77276;SDS011;66330;52.166;9.978;2023-04-24T06:03:58;0.70;;;0.60;;
77276;SDS011;66330;52.166;9.978;2023-04-24T06:06:23;0.63;;;0.60;;
77276;SDS011;66330;52.166;9.978;2023-04-24T06:08:49;0.70;;;0.70;;
77276;SDS011;66330;52.166;9.978;2023-04-24T06:11:15;0.70;;;0.50;;
77276;SDS011;66330;52.166;9.978;2023-04-24T06:13:40;1.03;;;0.80;;
77276;SDS011;66330;52.166;9.978;2023-04-24T06:16:06;0.70;;;0.60;;
77276;SDS011;66330;52.166;9.978;2023-04-24T06:18:31;0.87;;;0.60;;
77276;SDS011;66330;52.166;9.978;2023-04-24T06:20:57;1.10;;;0.60;;
77276;SDS011;66330;52.166;9.978;2023-04-24T06:23:23;0.60;;;0.60;;
77276;SDS011;66330;52.166;9.978;2023-04-24T06:25:48;0.70;;;0.60;;
77276;SDS011;66330;52.166;9.978;2023-04-24T06:28:14;0.80;;;0.80;;
77276;SDS011;66330;52.166;9.978;2023-04-24T06:30:40;1.00;;;0.70;;
77276;SDS011;66330;52.166;9.978;2023-04-24T06:33:06;1.57;;;1.10;;
77276;SDS011;66330;52.166;9.978;2023-04-24T06:35:31;1.30;;;1.17;;
77276;SDS011;66330;52.166;9.978;2023-04-24T06:37:57;2.03;;;1.20;;
77276;SDS011;66330;52.166;9.978;2023-04-24T06:40:22;1.70;;;1.33;;
77276;SDS011;66330;52.166;9.978;2023-04-24T06:42:48;1.73;;;1.50;;
77276;SDS011;66330;52.166;9.978;2023-04-24T06:45:13;1.50;;;1.40;;
77276;SDS011;66330;52.166;9.978;2023-04-24T06:47:39;1.70;;;1.60;;
77276;SDS011;66330;52.166;9.978;2023-04-24T06:50:05;2.33;;;1.93;;
77276;SDS011;66330;52.166;9.978;2023-04-24T06:52:31;2.70;;;2.50;;
77276;SDS011;66330;52.166;9.978;2023-04-24T06:55:01;2.90;;;1.80;;
77276;SDS011;66330;52.166;9.978;2023-04-24T06:57:30;1.70;;;1.43;;
77276;SDS011;66330;52.166;9.978;2023-04-24T06:59:56;2.50;;;2.00;;
77276;SDS011;66330;52.166;9.978;2023-04-24T07:02:21;1.73;;;1.63;;
77276;SDS011;66330;52.166;9.978;2023-04-24T07:04:47;1.93;;;1.40;;
77276;SDS011;66330;52.166;9.978;2023-04-24T07:07:13;1.80;;;1.67;;
77276;SDS011;66330;52.166;9.978;2023-04-24T07:09:39;1.67;;;1.57;;
77276;SDS011;66330;52.166;9.978;2023-04-24T07:12:09;1.90;;;1.80;;
77276;SDS011;66330;52.166;9.978;2023-04-24T07:14:38;2.23;;;2.10;;
77276;SDS011;66330;52.166;9.978;2023-04-24T07:17:05;2.03;;;1.93;;
77276;SDS011;66330;52.166;9.978;2023-04-24T07:19:31;2.27;;;2.00;;
77276;SDS011;66330;52.166;9.978;2023-04-24T07:21:58;2.53;;;2.33;;
77276;SDS011;66330;52.166;9.978;2023-04-24T07:24:24;2.40;;;1.93;;
77276;SDS011;66330;52.166;9.978;2023-04-24T07:26:50;2.07;;;1.97;;
77276;SDS011;66330;52.166;9.978;2023-04-24T07:29:17;2.87;;;2.67;;
77276;SDS011;66330;52.166;9.978;2023-04-24T07:31:43;3.00;;;2.80;;
77276;SDS011;66330;52.166;9.978;2023-04-24T07:34:09;3.63;;;3.40;;
77276;SDS011;66330;52.166;9.978;2023-04-24T07:36:34;4.40;;;4.00;;
77276;SDS011;66330;52.166;9.978;2023-04-24T07:39:00;4.60;;;4.27;;
77276;SDS011;66330;52.166;9.978;2023-04-24T07:41:26;4.80;;;4.40;;
77276;SDS011;66330;52.166;9.978;2023-04-24T07:43:53;3.83;;;3.53;;
77276;SDS011;66330;52.166;9.978;2023-04-24T07:46:18;4.60;;;4.30;;
77276;SDS011;66330;52.166;9.978;2023-04-24T07:48:45;5.07;;;4.63;;
77276;SDS011;66330;52.166;9.978;2023-04-24T07:51:13;4.90;;;4.50;;
77276;SDS011;66330;52.166;9.978;2023-04-24T07:53:39;4.73;;;4.33;;
77276;SDS011;66330;52.166;9.978;2023-04-24T07:56:05;4.80;;;4.40;;
77276;SDS011;66330;52.166;9.978;2023-04-24T07:58:31;4.73;;;4.13;;
77276;SDS011;66330;52.166;9.978;2023-04-24T08:00:56;4.93;;;4.33;;
77276;SDS011;66330;52.166;9.978;2023-04-24T08:03:22;5.10;;;4.60;;
77276;SDS011;66330;52.166;9.978;2023-04-24T08:05:48;5.50;;;5.00;;
77276;SDS011;66330;52.166;9.978;2023-04-24T08:08:15;4.90;;;4.50;;
77276;SDS011;66330;52.166;9.978;2023-04-24T08:10:41;5.20;;;4.80;;
77276;SDS011;66330;52.166;9.978;2023-04-24T08:13:07;5.73;;;5.30;;
77276;SDS011;66330;52.166;9.978;2023-04-24T08:15:32;5.60;;;4.97;;
77276;SDS011;66330;52.166;9.978;2023-04-24T08:17:58;5.10;;;4.70;;
77276;SDS011;66330;52.166;9.978;2023-04-24T08:20:24;5.10;;;4.60;;
77276;SDS011;66330;52.166;9.978;2023-04-24T08:22:49;5.50;;;5.00;;
77276;SDS011;66330;52.166;9.978;2023-04-24T08:25:15;5.00;;;4.60;;
77276;SDS011;66330;52.166;9.978;2023-04-24T08:27:40;4.90;;;4.43;;
77276;SDS011;66330;52.166;9.978;2023-04-24T08:30:06;4.67;;;4.27;;
77276;SDS011;66330;52.166;9.978;2023-04-24T08:32:32;4.83;;;4.50;;
77276;SDS011;66330;52.166;9.978;2023-04-24T08:34:58;4.53;;;3.37;;
77276;SDS011;66330;52.166;9.978;2023-04-24T08:37:25;4.60;;;4.17;;
77276;SDS011;66330;52.166;9.978;2023-04-24T08:39:51;3.53;;;3.27;;
77276;SDS011;66330;52.166;9.978;2023-04-24T08:42:18;3.77;;;3.47;;
77276;SDS011;66330;52.166;9.978;2023-04-24T08:44:44;3.77;;;3.57;;
77276;SDS011;66330;52.166;9.978;2023-04-24T08:47:11;3.40;;;3.13;;
77276;SDS011;66330;52.166;9.978;2023-04-24T08:49:37;3.70;;;3.40;;
77276;SDS011;66330;52.166;9.978;2023-04-24T08:52:03;4.00;;;3.70;;
77276;SDS011;66330;52.166;9.978;2023-04-24T08:54:31;4.20;;;3.80;;
77276;SDS011;66330;52.166;9.978;2023-04-24T08:56:59;3.90;;;3.60;;
77276;SDS011;66330;52.166;9.978;2023-04-24T08:59:29;4.10;;;3.80;;
77276;SDS011;66330;52.166;9.978;2023-04-24T09:01:55;4.27;;;3.97;;
77276;SDS011;66330;52.166;9.978;2023-04-24T09:04:22;3.67;;;3.37;;
77276;SDS011;66330;52.166;9.978;2023-04-24T09:06:56;3.80;;;3.50;;
77276;SDS011;66330;52.166;9.978;2023-04-24T09:09:23;3.70;;;3.40;;
77276;SDS011;66330;52.166;9.978;2023-04-24T09:11:50;4.77;;;4.00;;
77276;SDS011;66330;52.166;9.978;2023-04-24T09:14:18;4.30;;;4.00;;
77276;SDS011;66330;52.166;9.978;2023-04-24T09:16:45;3.80;;;3.10;;
77276;SDS011;66330;52.166;9.978;2023-04-24T09:19:11;3.67;;;3.37;;
77276;SDS011;66330;52.166;9.978;2023-04-24T09:21:37;3.47;;;3.17;;
77276;SDS011;66330;52.166;9.978;2023-04-24T09:24:04;3.70;;;3.40;;
77276;SDS011;66330;52.166;9.978;2023-04-24T09:26:34;5.00;;;3.90;;
77276;SDS011;66330;52.166;9.978;2023-04-24T09:29:00;3.30;;;2.93;;
77276;SDS011;66330;52.166;9.978;2023-04-24T09:31:27;3.57;;;3.37;;
77276;SDS011;66330;52.166;9.978;2023-04-24T09:33:57;3.20;;;2.90;;
77276;SDS011;66330;52.166;9.978;2023-04-24T09:36:28;2.70;;;2.50;;
77276;SDS011;66330;52.166;9.978;2023-04-24T09:38:58;2.80;;;2.60;;
77276;SDS011;66330;52.166;9.978;2023-04-24T09:41:28;2.47;;;2.30;;
77276;SDS011;66330;52.166;9.978;2023-04-24T09:43:54;2.97;;;2.77;;
77276;SDS011;66330;52.166;9.978;2023-04-24T09:46:20;3.10;;;2.90;;
77276;SDS011;66330;52.166;9.978;2023-04-24T09:48:47;3.00;;;2.80;;
77276;SDS011;66330;52.166;9.978;2023-04-24T09:51:13;2.33;;;2.13;;
77276;SDS011;66330;52.166;9.978;2023-04-24T09:53:44;2.60;;;2.40;;
77276;SDS011;66330;52.166;9.978;2023-04-24T09:56:11;2.80;;;2.60;;
77276;SDS011;66330;52.166;9.978;2023-04-24T09:58:38;3.60;;;2.60;;
77276;SDS011;66330;52.166;9.978;2023-04-24T10:01:04;3.40;;;2.70;;
77276;SDS011;66330;52.166;9.978;2023-04-24T10:03:30;2.93;;;2.73;;
77276;SDS011;66330;52.166;9.978;2023-04-24T10:06:01;2.60;;;2.40;;
77276;SDS011;66330;52.166;9.978;2023-04-24T10:08:33;3.00;;;2.43;;
77276;SDS011;66330;52.166;9.978;2023-04-24T10:10:59;2.07;;;1.83;;
77276;SDS011;66330;52.166;9.978;2023-04-24T10:13:25;2.10;;;1.90;;
77276;SDS011;66330;52.166;9.978;2023-04-24T10:15:51;2.40;;;2.20;;
77276;SDS011;66330;52.166;9.978;2023-04-24T10:18:17;2.23;;;2.10;;
77276;SDS011;66330;52.166;9.978;2023-04-24T10:20:43;2.07;;;1.97;;
77276;SDS011;66330;52.166;9.978;2023-04-24T10:23:10;2.70;;;2.23;;
77276;SDS011;66330;52.166;9.978;2023-04-24T10:25:36;2.83;;;2.37;;
77276;SDS011;66330;52.166;9.978;2023-04-24T10:28:02;2.43;;;2.20;;
77276;SDS011;66330;52.166;9.978;2023-04-24T10:30:30;3.07;;;2.80;;
77276;SDS011;66330;52.166;9.978;2023-04-24T10:33:00;3.40;;;2.50;;
77276;SDS011;66330;52.166;9.978;2023-04-24T10:35:26;2.40;;;2.17;;
77276;SDS011;66330;52.166;9.978;2023-04-24T10:37:59;2.30;;;2.10;;
77276;SDS011;66330;52.166;9.978;2023-04-24T10:40:32;2.80;;;2.60;;
77276;SDS011;66330;52.166;9.978;2023-04-24T10:42:59;2.60;;;2.40;;
77276;SDS011;66330;52.166;9.978;2023-04-24T10:45:28;3.03;;;2.77;;
77276;SDS011;66330;52.166;9.978;2023-04-24T10:48:06;2.20;;;2.00;;
77276;SDS011;66330;52.166;9.978;2023-04-24T10:53:27;2.23;;;2.03;;
77276;SDS011;66330;52.166;9.978;2023-04-24T10:56:04;2.97;;;2.67;;
77276;SDS011;66330;52.166;9.978;2023-04-24T10:58:41;2.80;;;2.43;;
77276;SDS011;66330;52.166;9.978;2023-04-24T11:01:22;2.50;;;2.30;;
77276;SDS011;66330;52.166;9.978;2023-04-24T11:03:50;3.00;;;2.20;;
77276;SDS011;66330;52.166;9.978;2023-04-24T11:06:20;2.77;;;2.40;;
77276;SDS011;66330;52.166;9.978;2023-04-24T11:09:03;2.73;;;2.53;;
77276;SDS011;66330;52.166;9.978;2023-04-24T11:11:33;3.33;;;3.03;;
77276;SDS011;66330;52.166;9.978;2023-04-24T11:14:01;2.70;;;2.50;;
77276;SDS011;66330;52.166;9.978;2023-04-24T11:16:52;3.70;;;3.40;;
77276;SDS011;66330;52.166;9.978;2023-04-24T11:19:20;2.90;;;2.70;;
77276;SDS011;66330;52.166;9.978;2023-04-24T11:29:38;4.63;;;2.20;;
77276;SDS011;66330;52.166;9.978;2023-04-24T11:32:14;7.43;;;2.10;;
77276;SDS011;66330;52.166;9.978;2023-04-24T11:34:39;2.43;;;2.10;;
77276;SDS011;66330;52.166;9.978;2023-04-24T11:37:05;2.20;;;2.00;;
77276;SDS011;66330;52.166;9.978;2023-04-24T11:39:36;2.07;;;1.97;;
77276;SDS011;66330;52.166;9.978;2023-04-24T11:42:02;1.67;;;1.50;;
77276;SDS011;66330;52.166;9.978;2023-04-24T11:44:28;1.80;;;1.70;;
77276;SDS011;66330;52.166;9.978;2023-04-24T11:46:55;2.00;;;1.80;;
77276;SDS011;66330;52.166;9.978;2023-04-24T11:49:21;3.40;;;1.90;;
77276;SDS011;66330;52.166;9.978;2023-04-24T11:51:46;1.80;;;1.70;;
77276;SDS011;66330;52.166;9.978;2023-04-24T11:54:12;2.53;;;1.50;;
77276;SDS011;66330;52.166;9.978;2023-04-24T11:56:38;1.70;;;1.43;;
77276;SDS011;66330;52.166;9.978;2023-04-24T11:59:04;1.40;;;1.23;;
77276;SDS011;66330;52.166;9.978;2023-04-24T12:01:29;1.40;;;1.30;;
77276;SDS011;66330;52.166;9.978;2023-04-24T12:04:07;1.47;;;1.37;;
77276;SDS011;66330;52.166;9.978;2023-04-24T12:06:32;2.17;;;1.97;;
77276;SDS011;66330;52.166;9.978;2023-04-24T12:08:58;1.90;;;1.73;;
77276;SDS011;66330;52.166;9.978;2023-04-24T12:11:24;1.30;;;1.20;;
77276;SDS011;66330;52.166;9.978;2023-04-24T12:13:50;1.67;;;1.50;;
77276;SDS011;66330;52.166;9.978;2023-04-24T12:16:16;1.40;;;1.30;;
77276;SDS011;66330;52.166;9.978;2023-04-24T12:18:42;1.70;;;1.60;;
77276;SDS011;66330;52.166;9.978;2023-04-24T12:21:17;1.43;;;1.20;;
77276;SDS011;66330;52.166;9.978;2023-04-24T12:23:47;1.57;;;1.30;;
77276;SDS011;66330;52.166;9.978;2023-04-24T12:26:22;1.83;;;1.30;;
77276;SDS011;66330;52.166;9.978;2023-04-24T12:28:48;2.40;;;1.30;;
77276;SDS011;66330;52.166;9.978;2023-04-24T12:31:15;1.23;;;1.13;;
77276;SDS011;66330;52.166;9.978;2023-04-24T12:33:41;1.30;;;1.20;;
77276;SDS011;66330;52.166;9.978;2023-04-24T12:36:09;1.30;;;1.20;;
77276;SDS011;66330;52.166;9.978;2023-04-24T12:38:37;1.50;;;1.40;;
77276;SDS011;66330;52.166;9.978;2023-04-24T12:43:33;1.40;;;1.30;;
77276;SDS011;66330;52.166;9.978;2023-04-24T12:45:58;1.60;;;1.50;;
77276;SDS011;66330;52.166;9.978;2023-04-24T12:48:25;1.40;;;1.30;;
77276;SDS011;66330;52.166;9.978;2023-04-24T12:50:54;1.00;;;1.00;;
77276;SDS011;66330;52.166;9.978;2023-04-24T12:53:21;2.00;;;1.17;;
77276;SDS011;66330;52.166;9.978;2023-04-24T12:55:47;1.37;;;1.27;;
77276;SDS011;66330;52.166;9.978;2023-04-24T12:58:18;1.30;;;1.20;;
77276;SDS011;66330;52.166;9.978;2023-04-24T13:00:44;2.10;;;1.50;;
77276;SDS011;66330;52.166;9.978;2023-04-24T13:03:11;1.30;;;1.20;;
77276;SDS011;66330;52.166;9.978;2023-04-24T13:05:36;1.53;;;1.40;;
77276;SDS011;66330;52.166;9.978;2023-04-24T13:08:02;1.80;;;1.47;;
77276;SDS011;66330;52.166;9.978;2023-04-24T13:10:27;1.50;;;1.40;;
77276;SDS011;66330;52.166;9.978;2023-04-24T13:12:53;2.60;;;1.23;;
77276;SDS011;66330;52.166;9.978;2023-04-24T13:15:19;1.30;;;1.20;;
77276;SDS011;66330;52.166;9.978;2023-04-24T13:17:45;1.67;;;1.50;;
77276;SDS011;66330;52.166;9.978;2023-04-24T13:20:10;1.63;;;1.53;;
77276;SDS011;66330;52.166;9.978;2023-04-24T13:22:36;1.40;;;1.30;;
77276;SDS011;66330;52.166;9.978;2023-04-24T13:25:02;1.60;;;1.50;;
77276;SDS011;66330;52.166;9.978;2023-04-24T13:27:27;1.57;;;1.47;;
77276;SDS011;66330;52.166;9.978;2023-04-24T13:29:53;1.50;;;1.40;;
77276;SDS011;66330;52.166;9.978;2023-04-24T13:32:19;1.50;;;1.40;;
77276;SDS011;66330;52.166;9.978;2023-04-24T13:34:44;2.17;;;1.67;;
77276;SDS011;66330;52.166;9.978;2023-04-24T13:37:10;1.80;;;1.70;;
77276;SDS011;66330;52.166;9.978;2023-04-24T13:39:35;1.33;;;1.23;;
77276;SDS011;66330;52.166;9.978;2023-04-24T13:42:01;1.53;;;1.43;;
77276;SDS011;66330;52.166;9.978;2023-04-24T13:44:27;1.33;;;1.23;;
77276;SDS011;66330;52.166;9.978;2023-04-24T13:46:53;1.67;;;1.40;;
77276;SDS011;66330;52.166;9.978;2023-04-24T13:49:21;1.00;;;0.90;;
77276;SDS011;66330;52.166;9.978;2023-04-24T13:51:49;1.37;;;0.70;;
77276;SDS011;66330;52.166;9.978;2023-04-24T13:54:15;2.23;;;0.80;;
77276;SDS011;66330;52.166;9.978;2023-04-24T13:56:41;0.97;;;0.87;;
77276;SDS011;66330;52.166;9.978;2023-04-24T13:59:06;0.80;;;0.63;;
77276;SDS011;66330;52.166;9.978;2023-04-24T14:01:32;1.33;;;1.23;;
77276;SDS011;66330;52.166;9.978;2023-04-24T14:03:58;0.90;;;0.80;;
77276;SDS011;66330;52.166;9.978;2023-04-24T14:06:23;0.90;;;0.70;;
77276;SDS011;66330;52.166;9.978;2023-04-24T14:08:49;0.80;;;0.73;;
77276;SDS011;66330;52.166;9.978;2023-04-24T14:11:16;1.17;;;0.50;;
77276;SDS011;66330;52.166;9.978;2023-04-24T14:13:42;0.60;;;0.50;;
77276;SDS011;66330;52.166;9.978;2023-04-24T14:16:08;0.80;;;0.80;;
77276;SDS011;66330;52.166;9.978;2023-04-24T14:18:34;0.80;;;0.70;;
77276;SDS011;66330;52.166;9.978;2023-04-24T14:21:01;1.10;;;0.87;;
77276;SDS011;66330;52.166;9.978;2023-04-24T14:23:27;0.70;;;0.70;;
77276;SDS011;66330;52.166;9.978;2023-04-24T14:25:52;1.20;;;1.10;;
77276;SDS011;66330;52.166;9.978;2023-04-24T14:28:18;0.90;;;0.90;;
77276;SDS011;66330;52.166;9.978;2023-04-24T14:30:45;3.03;;;1.00;;
77276;SDS011;66330;52.166;9.978;2023-04-24T14:33:11;1.00;;;0.90;;
77276;SDS011;66330;52.166;9.978;2023-04-24T14:35:37;1.23;;;1.13;;
77276;SDS011;66330;52.166;9.978;2023-04-24T14:38:03;1.20;;;1.10;;
77276;SDS011;66330;52.166;9.978;2023-04-24T14:40:29;1.33;;;1.23;;
77276;SDS011;66330;52.166;9.978;2023-04-24T14:42:56;2.07;;;1.60;;
77276;SDS011;66330;52.166;9.978;2023-04-24T14:45:22;4.60;;;1.40;;
77276;SDS011;66330;52.166;9.978;2023-04-24T14:47:48;1.57;;;1.30;;
77276;SDS011;66330;52.166;9.978;2023-04-24T14:50:14;1.30;;;1.20;;
77276;SDS011;66330;52.166;9.978;2023-04-24T14:52:40;2.43;;;1.67;;
77276;SDS011;66330;52.166;9.978;2023-04-24T14:55:05;1.30;;;1.20;;
77276;SDS011;66330;52.166;9.978;2023-04-24T14:57:31;1.60;;;1.13;;